Time;durP1;ratioP1;P1;durP2;ratioP2;P2;SDS_P1;SDS_P2;PMS_P1;PMS_P2;Temp;Humidity;BMP_temperature;BMP_pressure;BME280_temperature;BME280_humidity;BME280_pressure;Samples;Min_cycle;Max_cycle;Signal;HPM_P1;HPM_P2
2024/02/13 00:00:26;;;;;;;2.35;1.70;;;4.90;99.90;;;;;;5041751;28;20216;-75
2024/02/13 00:02:53;;;;;;;4.03;2.22;;;5.00;99.90;;;;;;5048854;28;20200;-75
2024/02/13 00:05:21;;;;;;;4.65;1.80;;;4.60;99.90;;;;;;5042813;28;20307;-75
2024/02/13 00:07:48;;;;;;;3.35;2.40;;;4.70;99.90;;;;;;5049265;28;20601;-75
2024/02/13 00:10:15;;;;;;;8.73;2.65;;;4.70;99.90;;;;;;5050020;28;20270;-75
2024/02/13 00:12:43;;;;;;;4.93;2.63;;;4.70;99.90;;;;;;5045180;28;20289;-75
2024/02/13 00:15:14;;;;;;;4.40;2.25;;;4.70;99.90;;;;;;5043102;28;20287;-75
2024/02/13 00:17:41;;;;;;;4.68;2.20;;;4.60;99.90;;;;;;5047201;28;20637;-75
2024/02/13 00:20:10;;;;;;;9.13;2.92;;;4.60;99.90;;;;;;5045046;28;20220;-75
2024/02/13 00:22:38;;;;;;;2.22;2.00;;;4.70;99.90;;;;;;5048545;28;20207;-76
2024/02/13 00:25:05;;;;;;;3.75;1.80;;;4.70;99.90;;;;;;5050280;28;20200;-75
2024/02/13 00:27:33;;;;;;;5.15;2.05;;;4.90;99.90;;;;;;5044902;28;20517;-75
2024/02/13 00:30:00;;;;;;;4.75;2.30;;;4.60;99.90;;;;;;5048966;28;21000;-75
2024/02/13 00:32:27;;;;;;;7.25;2.83;;;4.60;99.90;;;;;;5037297;28;20285;-75
2024/02/13 00:34:54;;;;;;;6.07;3.13;;;4.50;99.90;;;;;;5049392;28;20222;-75
2024/02/13 00:37:23;;;;;;;5.05;4.55;;;4.50;99.90;;;;;;5050195;28;20192;-75
2024/02/13 00:39:51;;;;;;;5.68;3.47;;;4.40;99.90;;;;;;5040216;28;20196;-75
2024/02/13 00:42:18;;;;;;;3.20;2.85;;;4.50;99.90;;;;;;5045315;28;20208;-75
2024/02/13 00:44:44;;;;;;;6.25;1.98;;;4.40;99.90;;;;;;5048658;28;20200;-75
2024/02/13 00:47:12;;;;;;;4.25;2.35;;;4.50;99.90;;;;;;5048086;28;20195;-75
2024/02/13 00:49:38;;;;;;;4.38;3.15;;;4.60;99.90;;;;;;5048169;28;20254;-76
2024/02/13 00:52:07;;;;;;;2.72;2.30;;;4.60;99.90;;;;;;5049100;28;20200;-75
2024/02/13 00:54:33;;;;;;;3.60;2.92;;;4.40;99.90;;;;;;5043640;28;20258;-75
2024/02/13 00:57:03;;;;;;;3.38;2.25;;;4.50;99.90;;;;;;5042779;28;20192;-75
2024/02/13 00:59:30;;;;;;;4.18;2.50;;;4.60;99.90;;;;;;5048187;28;20204;-75
2024/02/13 01:01:58;;;;;;;3.83;1.65;;;4.60;99.90;;;;;;5043893;28;20701;-75
2024/02/13 01:04:25;;;;;;;3.58;2.60;;;4.60;99.90;;;;;;5042244;28;20619;-75
2024/02/13 01:06:53;;;;;;;3.20;2.00;;;4.70;99.90;;;;;;5048323;28;20196;-75
2024/02/13 01:09:20;;;;;;;2.33;1.80;;;4.80;99.90;;;;;;5048217;28;20286;-76
2024/02/13 01:11:47;;;;;;;7.55;1.95;;;5.40;99.90;;;;;;5038422;28;20431;-75
2024/02/13 01:14:16;;;;;;;2.85;2.30;;;5.00;99.90;;;;;;5048226;28;20200;-75
2024/02/13 01:16:42;;;;;;;3.15;2.45;;;5.00;99.90;;;;;;5047975;28;20208;-75
2024/02/13 01:19:09;;;;;;;4.63;2.67;;;5.00;99.90;;;;;;5049371;28;20207;-75
2024/02/13 01:21:36;;;;;;;3.17;2.58;;;5.00;99.90;;;;;;5044267;28;20334;-75
2024/02/13 01:24:03;;;;;;;2.88;2.35;;;5.10;99.90;;;;;;5043022;28;20646;-75
2024/02/13 01:26:30;;;;;;;5.18;1.83;;;5.10;99.90;;;;;;5048697;28;20210;-75
2024/02/13 01:28:57;;;;;;;2.63;1.85;;;5.20;99.90;;;;;;5048750;28;20661;-75
2024/02/13 01:31:25;;;;;;;2.42;1.83;;;5.20;99.90;;;;;;5048202;28;20211;-75
2024/02/13 01:33:52;;;;;;;2.75;1.88;;;5.20;99.90;;;;;;5046812;28;20556;-75
2024/02/13 01:36:19;;;;;;;2.33;1.73;;;5.30;99.90;;;;;;5047179;28;20200;-75
2024/02/13 01:38:46;;;;;;;5.95;1.70;;;5.70;99.90;;;;;;5047297;28;20216;-75
2024/02/13 01:41:14;;;;;;;2.15;1.92;;;5.30;99.90;;;;;;5048263;28;20223;-75
2024/02/13 01:43:41;;;;;;;5.15;2.00;;;5.40;99.90;;;;;;5048039;28;20238;-75
2024/02/13 01:46:08;;;;;;;4.60;2.55;;;5.30;99.90;;;;;;5047113;28;20283;-75
2024/02/13 01:48:38;;;;;;;4.13;2.47;;;5.40;99.90;;;;;;5048148;28;20188;-75
2024/02/13 01:51:06;;;;;;;2.42;2.00;;;5.40;99.90;;;;;;5048659;28;20215;-75
2024/02/13 01:53:34;;;;;;;4.95;2.20;;;5.40;99.90;;;;;;5046511;28;20200;-75
2024/02/13 01:56:03;;;;;;;3.40;2.08;;;5.40;99.90;;;;;;5047246;28;20208;-76
2024/02/13 01:58:31;;;;;;;1.85;1.75;;;5.40;99.90;;;;;;5048114;28;20214;-75
2024/02/13 02:01:00;;;;;;;2.78;1.88;;;5.30;99.90;;;;;;5046763;28;20629;-75
2024/02/13 02:03:31;;;;;;;3.58;1.92;;;5.30;99.90;;;;;;5047385;28;20196;-75
2024/02/13 02:06:00;;;;;;;4.28;2.05;;;5.20;99.90;;;;;;5047645;28;20192;-75
2024/02/13 02:08:27;;;;;;;6.72;1.92;;;5.20;99.90;;;;;;5047396;28;20192;-75
2024/02/13 02:10:57;;;;;;;4.95;2.10;;;5.10;99.90;;;;;;5048136;28;20204;-75
2024/02/13 02:13:25;;;;;;;3.28;2.22;;;4.80;99.90;;;;;;5047553;28;20230;-75
2024/02/13 02:15:53;;;;;;;1.98;1.88;;;5.00;99.90;;;;;;5047995;28;20238;-75
2024/02/13 02:18:20;;;;;;;4.05;2.10;;;5.00;99.90;;;;;;5048235;28;20196;-75
2024/02/13 02:20:48;;;;;;;6.72;2.28;;;4.90;99.90;;;;;;5047671;28;20238;-75
2024/02/13 02:23:18;;;;;;;4.15;2.00;;;4.90;99.90;;;;;;5047101;28;20196;-75
2024/02/13 02:25:48;;;;;;;3.70;1.92;;;4.80;99.90;;;;;;5041514;28;20469;-75
2024/02/13 02:28:16;;;;;;;1.95;1.75;;;4.80;99.90;;;;;;5046552;28;20707;-75
2024/02/13 02:30:46;;;;;;;5.97;1.80;;;4.50;99.90;;;;;;5047310;28;20211;-75
2024/02/13 02:33:14;;;;;;;2.17;1.95;;;4.60;99.90;;;;;;5045410;28;20792;-75
2024/02/13 02:35:42;;;;;;;3.72;1.83;;;4.60;99.90;;;;;;5045998;28;20202;-75
2024/02/13 02:38:10;;;;;;;2.97;2.30;;;4.50;99.90;;;;;;5047170;28;20207;-75
2024/02/13 02:40:38;;;;;;;1.80;1.65;;;4.70;99.90;;;;;;5045710;28;20210;-75
2024/02/13 02:43:07;;;;;;;6.60;2.70;;;4.70;99.90;;;;;;5047328;28;20268;-75
2024/02/13 02:45:35;;;;;;;4.43;1.98;;;4.50;99.90;;;;;;5047363;28;20192;-75
2024/02/13 02:48:03;;;;;;;5.03;2.15;;;4.60;99.90;;;;;;5047055;28;20277;-75
2024/02/13 02:50:30;;;;;;;3.10;1.80;;;4.50;99.90;;;;;;5046870;28;20223;-75
2024/02/13 02:52:58;;;;;;;2.08;1.60;;;4.70;99.90;;;;;;5046245;28;20204;-75
2024/02/13 02:55:26;;;;;;;2.40;1.98;;;4.50;99.90;;;;;;5037652;28;20291;-75
2024/02/13 02:57:53;;;;;;;3.97;2.10;;;4.50;99.90;;;;;;5043673;28;20287;-75
2024/02/13 03:00:22;;;;;;;3.65;2.30;;;4.50;99.90;;;;;;5047094;28;20192;-75
2024/02/13 03:02:49;;;;;;;5.18;2.45;;;4.30;99.90;;;;;;5041001;28;20609;-75
2024/02/13 03:05:16;;;;;;;2.58;2.20;;;4.30;99.90;;;;;;5043241;28;20686;-75
2024/02/13 03:07:45;;;;;;;2.47;2.08;;;4.20;99.90;;;;;;5046946;28;20204;-75
2024/02/13 03:10:13;;;;;;;4.78;2.17;;;4.20;99.90;;;;;;5038115;28;20199;-75
2024/02/13 03:12:40;;;;;;;4.03;1.90;;;4.30;99.90;;;;;;5049683;28;20573;-75
2024/02/13 03:15:09;;;;;;;3.50;1.90;;;4.50;99.90;;;;;;5051037;28;20572;-75
2024/02/13 03:17:39;;;;;;;3.75;2.38;;;4.30;99.90;;;;;;5050146;28;20296;-75
2024/02/13 03:20:10;;;;;;;2.50;2.00;;;4.20;99.90;;;;;;5048036;28;20204;-75
2024/02/13 03:22:38;;;;;;;2.58;2.35;;;4.20;99.90;;;;;;5048224;28;20658;-75
2024/02/13 03:25:06;;;;;;;3.50;2.30;;;4.10;99.90;;;;;;5050570;28;20288;-75
2024/02/13 03:27:33;;;;;;;4.25;2.17;;;4.20;99.90;;;;;;5050077;28;20208;-75
2024/02/13 03:30:02;;;;;;;2.92;2.10;;;4.20;99.90;;;;;;5050873;28;20748;-75
2024/02/13 03:32:29;;;;;;;2.47;1.80;;;4.20;99.90;;;;;;5048357;28;20196;-75
2024/02/13 03:34:58;;;;;;;2.33;2.00;;;4.70;99.90;;;;;;5048348;28;20254;-75
2024/02/13 03:37:26;;;;;;;3.47;2.58;;;4.50;99.90;;;;;;5049803;28;20200;-75
2024/02/13 03:39:54;;;;;;;4.35;2.63;;;4.50;99.90;;;;;;5050576;28;20208;-75
2024/02/13 03:42:21;;;;;;;2.60;2.40;;;4.20;99.90;;;;;;5050097;28;20865;-75
2024/02/13 03:44:50;;;;;;;4.70;2.10;;;4.60;99.90;;;;;;5048109;28;20283;-75
2024/02/13 03:47:18;;;;;;;1.70;1.60;;;4.20;99.90;;;;;;5047608;28;20196;-75
2024/02/13 03:49:44;;;;;;;5.93;2.33;;;4.20;99.90;;;;;;5049887;28;20192;-75
2024/02/13 03:52:12;;;;;;;2.60;1.95;;;4.30;99.90;;;;;;5050096;28;20184;-75
2024/02/13 03:54:40;;;;;;;3.95;2.35;;;4.30;99.90;;;;;;5049124;28;20250;-75
2024/02/13 03:57:07;;;;;;;2.28;2.08;;;4.30;99.90;;;;;;5048801;28;20254;-75
2024/02/13 03:59:33;;;;;;;3.90;2.42;;;4.40;99.90;;;;;;5047745;28;20275;-75
2024/02/13 04:02:02;;;;;;;4.93;2.00;;;4.40;99.90;;;;;;5050110;28;20239;-75
2024/02/13 04:04:30;;;;;;;2.55;2.35;;;4.30;99.90;;;;;;5049096;28;20196;-75
2024/02/13 04:06:57;;;;;;;2.85;2.55;;;4.40;99.90;;;;;;5049490;28;20207;-75
2024/02/13 04:09:26;;;;;;;5.10;2.67;;;4.40;99.90;;;;;;5049594;28;20953;-75
2024/02/13 04:11:53;;;;;;;3.85;2.42;;;4.30;99.90;;;;;;5048764;28;20196;-75
2024/02/13 04:14:20;;;;;;;2.60;2.08;;;4.40;99.90;;;;;;5050049;28;20630;-75
2024/02/13 04:16:47;;;;;;;3.72;2.10;;;4.30;99.90;;;;;;5045649;28;20546;-75
2024/02/13 04:19:14;;;;;;;3.72;1.95;;;4.30;99.90;;;;;;5048944;28;20569;-75
2024/02/13 04:21:40;;;;;;;2.35;1.88;;;4.00;99.90;;;;;;5047326;28;20326;-75
2024/02/13 04:24:07;;;;;;;5.93;1.80;;;4.40;99.90;;;;;;5045346;28;20208;-76
2024/02/13 04:26:39;;;;;;;3.15;2.78;;;4.20;99.90;;;;;;5042441;28;20210;-75
2024/02/13 04:29:06;;;;;;;2.47;1.90;;;4.20;99.90;;;;;;5042303;28;20222;-76
2024/02/13 04:31:33;;;;;;;2.30;2.10;;;4.60;99.90;;;;;;5045320;28;20202;-75
2024/02/13 04:34:00;;;;;;;1.98;1.70;;;4.20;99.90;;;;;;5044075;28;20207;-75
2024/02/13 04:36:26;;;;;;;5.93;1.90;;;4.30;99.90;;;;;;5047966;28;20195;-75
2024/02/13 04:38:53;;;;;;;6.30;1.73;;;5.10;99.90;;;;;;5048007;28;20203;-75
2024/02/13 04:41:20;;;;;;;1.40;1.30;;;4.20;99.90;;;;;;5043986;28;20222;-75
2024/02/13 04:43:49;;;;;;;2.05;1.50;;;4.40;99.90;;;;;;5047278;28;20227;-75
2024/02/13 04:46:16;;;;;;;2.10;1.88;;;4.20;99.90;;;;;;5049192;28;20206;-75
2024/02/13 04:48:43;;;;;;;2.58;1.83;;;4.20;99.90;;;;;;5053006;28;20208;-75
2024/02/13 04:51:10;;;;;;;4.85;1.63;;;4.40;99.90;;;;;;5053324;28;20640;-75
2024/02/13 04:53:37;;;;;;;2.85;2.00;;;4.20;99.90;;;;;;5051095;28;20830;-76
2024/02/13 04:56:04;;;;;;;6.90;2.60;;;4.30;99.90;;;;;;5058607;28;20834;-75
2024/02/13 04:58:32;;;;;;;7.03;2.42;;;4.40;99.90;;;;;;5056585;28;20206;-75
2024/02/13 05:01:04;;;;;;;2.35;1.77;;;4.60;99.90;;;;;;5049052;28;20200;-74
2024/02/13 05:03:42;;;;;;;6.20;2.00;;;4.60;99.90;;;;;;5047265;28;20618;-76
2024/02/13 05:08:55;;;;;;;4.30;2.40;;;4.50;99.90;;;;;;5047299;28;20676;-75
2024/02/13 05:11:22;;;;;;;2.40;2.20;;;4.70;99.90;;;;;;5042703;28;20192;-75
2024/02/13 05:13:49;;;;;;;4.25;3.85;;;4.50;99.90;;;;;;5042997;28;20196;-75
2024/02/13 05:16:17;;;;;;;4.90;4.40;;;4.50;99.90;;;;;;5048787;28;20211;-75
2024/02/13 05:18:44;;;;;;;6.47;3.58;;;4.50;99.90;;;;;;5048631;28;20238;-75
2024/02/13 05:21:13;;;;;;;4.28;3.88;;;4.60;99.90;;;;;;5048350;28;20204;-75
2024/02/13 05:23:40;;;;;;;4.78;2.60;;;4.50;99.90;;;;;;5048459;28;20200;-75
2024/02/13 05:26:08;;;;;;;3.28;2.53;;;4.40;99.90;;;;;;5045002;28;20289;-75
2024/02/13 05:28:36;;;;;;;2.72;2.20;;;4.40;99.90;;;;;;5044341;28;20212;-75
2024/02/13 05:31:04;;;;;;;4.30;2.38;;;4.30;99.90;;;;;;5048186;28;20677;-75
2024/02/13 05:33:32;;;;;;;2.35;2.15;;;4.20;99.90;;;;;;5045877;28;20200;-75
2024/02/13 05:36:01;;;;;;;4.53;2.65;;;4.10;99.90;;;;;;5047939;28;20655;-75
2024/02/13 05:38:28;;;;;;;3.13;2.45;;;4.10;99.90;;;;;;5045235;28;20202;-75
2024/02/13 05:40:55;;;;;;;2.85;2.05;;;4.10;99.90;;;;;;5047646;28;20223;-73
2024/02/13 05:43:22;;;;;;;2.42;2.17;;;4.10;99.90;;;;;;5047186;28;20259;-81
2024/02/13 05:45:49;;;;;;;2.75;2.30;;;3.90;99.90;;;;;;5048469;28;20692;-71
2024/02/13 05:48:18;;;;;;;4.70;3.17;;;3.90;99.90;;;;;;5047826;28;20833;-75
2024/02/13 05:50:46;;;;;;;2.28;2.08;;;4.00;99.90;;;;;;5047617;28;20238;-76
2024/02/13 05:53:13;;;;;;;2.88;2.10;;;3.90;99.90;;;;;;5047732;28;20196;-72
2024/02/13 05:55:41;;;;;;;3.20;2.53;;;4.00;99.90;;;;;;5042158;28;20659;-77
2024/02/13 05:58:07;;;;;;;5.40;2.50;;;4.40;99.90;;;;;;5048193;28;20207;-77
2024/02/13 06:00:34;;;;;;;3.17;2.50;;;4.30;99.90;;;;;;5047656;28;20200;-78
2024/02/13 06:03:04;;;;;;;8.38;2.70;;;4.20;99.90;;;;;;5047486;28;20227;-77
2024/02/13 06:05:31;;;;;;;3.40;3.10;;;4.10;99.90;;;;;;5048228;28;20206;-78
2024/02/13 06:07:59;;;;;;;2.53;2.15;;;4.10;99.90;;;;;;5047771;28;20213;-78
2024/02/13 06:10:26;;;;;;;7.05;4.03;;;4.80;99.90;;;;;;5048308;28;20662;-77
2024/02/13 06:12:53;;;;;;;4.03;3.35;;;4.10;99.90;;;;;;5047656;28;20210;-77
2024/02/13 06:15:20;;;;;;;2.67;2.47;;;4.20;99.90;;;;;;5047827;28;20214;-77
2024/02/13 06:17:47;;;;;;;5.65;3.25;;;4.30;99.90;;;;;;5047070;28;20210;-77
2024/02/13 06:20:14;;;;;;;4.18;2.80;;;4.40;99.90;;;;;;5047067;28;20207;-74
2024/02/13 06:22:41;;;;;;;3.85;2.72;;;4.30;99.90;;;;;;5040982;28;20345;-73
2024/02/13 06:25:11;;;;;;;5.07;3.20;;;5.00;99.90;;;;;;5045827;28;20210;-74
2024/02/13 06:27:38;;;;;;;3.47;2.38;;;4.60;99.90;;;;;;5045219;28;20196;-74
2024/02/13 06:30:07;;;;;;;6.18;2.35;;;4.60;99.90;;;;;;5045053;28;20207;-74
2024/02/13 06:32:33;;;;;;;3.47;2.97;;;4.40;99.90;;;;;;5043381;28;20192;-74
2024/02/13 06:35:00;;;;;;;4.75;2.75;;;4.60;99.90;;;;;;5044247;28;20214;-74
2024/02/13 06:37:27;;;;;;;4.22;2.85;;;4.60;99.90;;;;;;5047580;28;20206;-74
2024/02/13 06:39:54;;;;;;;6.57;2.75;;;4.60;99.90;;;;;;5045873;28;20231;-74
2024/02/13 06:42:22;;;;;;;4.95;2.78;;;4.50;99.90;;;;;;5044429;28;20685;-74
2024/02/13 06:44:49;;;;;;;5.90;3.05;;;4.50;99.90;;;;;;5038417;28;20187;-74
2024/02/13 06:47:16;;;;;;;3.25;2.53;;;4.50;99.90;;;;;;5044161;28;20419;-74
2024/02/13 06:49:42;;;;;;;4.07;2.83;;;4.90;99.90;;;;;;5046857;28;20200;-73
2024/02/13 06:52:09;;;;;;;2.95;2.67;;;4.50;99.90;;;;;;5047493;28;20207;-74
2024/02/13 06:54:36;;;;;;;2.67;2.45;;;4.60;99.90;;;;;;5046082;28;20594;-76
2024/02/13 06:57:03;;;;;;;3.17;2.65;;;4.70;99.90;;;;;;5046847;28;20295;-75
2024/02/13 06:59:31;;;;;;;5.35;3.72;;;4.30;99.90;;;;;;5039115;28;20201;-74
2024/02/13 07:01:59;;;;;;;4.20;3.05;;;4.70;99.90;;;;;;5041990;28;20191;-75
2024/02/13 07:04:26;;;;;;;5.15;2.67;;;4.60;99.90;;;;;;5037562;28;20205;-74
2024/02/13 07:06:55;;;;;;;4.65;2.40;;;4.60;99.90;;;;;;5041854;28;20211;-74
2024/02/13 07:09:23;;;;;;;3.47;2.53;;;4.60;99.90;;;;;;5043534;28;20661;-73
2024/02/13 07:11:51;;;;;;;3.63;2.90;;;4.60;99.90;;;;;;5041238;28;20219;-75
2024/02/13 07:14:18;;;;;;;3.25;2.30;;;4.60;99.90;;;;;;5045983;28;20337;-74
2024/02/13 07:16:46;;;;;;;8.50;3.03;;;4.80;99.90;;;;;;5041905;28;20201;-78
2024/02/13 07:19:14;;;;;;;5.57;2.53;;;4.80;99.90;;;;;;5046963;28;20199;-74
2024/02/13 07:21:41;;;;;;;3.30;2.85;;;4.90;99.90;;;;;;5039118;28;20259;-74
2024/02/13 07:24:09;;;;;;;3.10;2.78;;;4.90;99.90;;;;;;5046441;28;20632;-73
2024/02/13 07:26:36;;;;;;;3.80;3.00;;;4.90;99.90;;;;;;5038311;28;20219;-72
2024/02/13 07:29:03;;;;;;;2.30;2.10;;;5.80;99.90;;;;;;5041367;28;20731;-73
2024/02/13 07:31:33;;;;;;;3.97;2.55;;;5.00;99.90;;;;;;5046271;28;20208;-73
2024/02/13 07:34:01;;;;;;;5.57;2.75;;;5.00;99.90;;;;;;5046473;28;20211;-73
2024/02/13 07:36:28;;;;;;;4.45;2.70;;;5.00;99.90;;;;;;5046669;28;20680;-72
2024/02/13 07:38:56;;;;;;;8.18;2.90;;;5.10;99.90;;;;;;5046932;28;20426;-73
2024/02/13 07:41:23;;;;;;;2.72;2.53;;;5.10;99.90;;;;;;5047206;28;20534;-72
2024/02/13 07:43:49;;;;;;;3.08;2.78;;;5.10;99.90;;;;;;5043885;28;20218;-73
2024/02/13 07:46:17;;;;;;;3.88;3.28;;;5.20;99.90;;;;;;5046240;28;20207;-73
2024/02/13 07:48:46;;;;;;;4.00;2.63;;;5.30;99.90;;;;;;5046890;28;20208;-73
2024/02/13 07:51:15;;;;;;;9.15;3.10;;;5.30;99.90;;;;;;5046988;28;20204;-73
2024/02/13 07:53:42;;;;;;;3.35;2.20;;;5.20;99.90;;;;;;5046233;28;20719;-73
2024/02/13 07:56:10;;;;;;;3.35;2.75;;;5.20;99.90;;;;;;5039935;28;20200;-72
2024/02/13 07:58:38;;;;;;;2.70;2.50;;;5.30;99.90;;;;;;5046260;28;20200;-72
2024/02/13 08:01:05;;;;;;;5.30;2.95;;;5.40;99.90;;;;;;5050209;28;20259;-72
2024/02/13 08:03:34;;;;;;;4.72;2.20;;;5.40;99.90;;;;;;5049689;28;20662;-72
2024/02/13 08:06:02;;;;;;;4.40;2.85;;;5.50;99.90;;;;;;5050580;28;20265;-72
2024/02/13 08:08:30;;;;;;;4.18;2.00;;;5.50;99.90;;;;;;5050187;28;20557;-72
2024/02/13 08:10:57;;;;;;;4.38;2.72;;;5.60;99.90;;;;;;5049499;28;20219;-72
2024/02/13 08:13:24;;;;;;;5.38;2.72;;;5.70;99.90;;;;;;5049681;28;20199;-72
2024/02/13 08:15:51;;;;;;;4.40;2.70;;;5.80;99.90;;;;;;5049704;28;20210;-72
2024/02/13 08:18:19;;;;;;;2.65;2.45;;;5.90;99.90;;;;;;5049957;28;20270;-72
2024/02/13 08:20:46;;;;;;;2.63;2.30;;;6.00;99.90;;;;;;5050204;28;20220;-72
2024/02/13 08:23:13;;;;;;;3.65;2.88;;;;;;;;;;5049524;28;20224;-72
2024/02/13 08:25:42;;;;;;;2.70;2.47;;;6.10;99.90;;;;;;5048864;28;20203;-72
2024/02/13 08:28:12;;;;;;;4.18;2.80;;;6.10;99.90;;;;;;5049822;28;20204;-72
2024/02/13 08:30:39;;;;;;;2.88;2.25;;;6.20;99.90;;;;;;5049661;28;20294;-72
2024/02/13 08:33:06;;;;;;;2.58;2.38;;;6.20;99.90;;;;;;5049473;28;20668;-72
2024/02/13 08:35:33;;;;;;;8.77;4.87;;;6.10;99.90;;;;;;5049967;28;20573;-72
2024/02/13 08:38:00;;;;;;;4.37;3.03;;;6.30;99.90;;;;;;5048709;28;20622;-73
2024/02/13 08:40:27;;;;;;;3.92;2.05;;;6.30;99.90;;;;;;5049467;28;20626;-73
2024/02/13 08:42:56;;;;;;;8.53;1.70;;;6.50;99.90;;;;;;5048960;28;20655;-73
2024/02/13 08:45:22;;;;;;;6.40;1.93;;;6.40;99.90;;;;;;5049675;28;20630;-73
2024/02/13 08:47:49;;;;;;;1.90;1.77;;;6.50;99.90;;;;;;5049659;28;20623;-73
2024/02/13 08:50:17;;;;;;;4.70;2.30;;;6.60;99.90;;;;;;5049067;28;20718;-73
2024/02/13 08:52:44;;;;;;;2.40;1.80;;;6.70;99.90;;;;;;5047912;28;20994;-73
2024/02/13 08:55:11;;;;;;;1.67;1.58;;;6.70;99.90;;;;;;5044807;28;20209;-73
2024/02/13 08:57:38;;;;;;;3.07;2.00;;;6.80;99.90;;;;;;5047708;28;20206;-73
2024/02/13 09:00:09;;;;;;;3.80;1.53;;;7.00;99.90;;;;;;5049587;28;21194;-73
2024/02/13 09:02:36;;;;;;;1.50;1.33;;;7.10;99.90;;;;;;5048519;28;20669;-73
2024/02/13 09:05:04;;;;;;;2.77;2.23;;;7.10;99.90;;;;;;5049005;28;20619;-73
2024/02/13 09:07:31;;;;;;;2.20;1.53;;;7.20;99.90;;;;;;5048709;28;20626;-73
2024/02/13 09:09:58;;;;;;;3.90;1.90;;;7.30;99.90;;;;;;5048769;28;20662;-73
2024/02/13 09:12:25;;;;;;;3.27;2.30;;;7.40;99.90;;;;;;5049102;28;20643;-73
2024/02/13 09:14:52;;;;;;;1.70;1.53;;;7.20;99.90;;;;;;5047610;28;20637;-73
2024/02/13 09:17:20;;;;;;;2.77;2.57;;;7.50;99.70;;;;;;5048687;28;21155;-73
2024/02/13 09:19:47;;;;;;;3.37;1.83;;;7.50;99.30;;;;;;5048096;28;20676;-73
2024/02/13 09:22:14;;;;;;;3.40;1.60;;;7.60;99.10;;;;;;5048945;28;20625;-73
2024/02/13 09:24:43;;;;;;;1.47;1.37;;;7.50;98.40;;;;;;5048244;28;20712;-73
2024/02/13 09:27:11;;;;;;;6.20;1.80;;;7.60;98.70;;;;;;5048741;28;20703;-73
2024/02/13 09:29:38;;;;;;;1.97;1.40;;;7.60;98.60;;;;;;5048602;28;20980;-73
2024/02/13 09:32:05;;;;;;;2.33;1.53;;;7.70;98.50;;;;;;5047909;28;20627;-73
2024/02/13 09:34:33;;;;;;;2.67;2.20;;;7.70;98.50;;;;;;5047517;28;20733;-73
2024/02/13 09:37:00;;;;;;;3.57;1.83;;;7.80;98.80;;;;;;5048669;28;20637;-73
2024/02/13 09:39:27;;;;;;;4.57;1.40;;;8.00;99.90;;;;;;5048636;28;20719;-73
2024/02/13 09:41:55;;;;;;;2.40;1.67;;;8.20;98.70;;;;;;5048558;28;20627;-73
2024/02/13 09:44:23;;;;;;;2.60;1.80;;;8.20;98.20;;;;;;5047499;28;20756;-73
2024/02/13 09:46:52;;;;;;;3.67;1.90;;;8.10;97.20;;;;;;5047213;28;21537;-73
2024/02/13 09:49:19;;;;;;;3.43;1.40;;;8.20;97.70;;;;;;5048460;28;20630;-73
2024/02/13 09:51:51;;;;;;;3.80;2.10;;;8.10;97.90;;;;;;5048571;28;21265;-73
2024/02/13 09:54:18;;;;;;;3.00;2.23;;;8.00;97.90;;;;;;5047603;28;21171;-73
2024/02/13 09:56:46;;;;;;;2.13;1.50;;;7.90;98.00;;;;;;5041164;28;20741;-73
2024/02/13 09:59:13;;;;;;;5.87;3.20;;;8.00;97.80;;;;;;5047616;28;20737;-73
2024/02/13 10:01:40;;;;;;;2.77;2.13;;;8.10;97.70;;;;;;5048066;28;20980;-73
2024/02/13 10:04:08;;;;;;;2.33;1.70;;;8.70;99.90;;;;;;5047575;28;20680;-73
2024/02/13 10:06:35;;;;;;;3.93;1.70;;;8.20;97.40;;;;;;5047982;28;21194;-73
2024/02/13 10:09:05;;;;;;;5.03;2.10;;;8.10;97.10;;;;;;5047920;28;20658;-73
2024/02/13 10:11:34;;;;;;;1.70;1.50;;;8.20;97.30;;;;;;5048031;28;20630;-73
2024/02/13 10:14:01;;;;;;;3.50;1.90;;;8.30;97.80;;;;;;5046742;28;20729;-73
2024/02/13 10:16:28;;;;;;;3.87;2.10;;;8.30;97.10;;;;;;5047796;28;20639;-73
2024/02/13 10:18:57;;;;;;;1.90;1.60;;;8.40;96.80;;;;;;5047974;28;20678;-73
2024/02/13 10:21:25;;;;;;;2.50;1.50;;;8.40;96.80;;;;;;5047440;28;20717;-73
2024/02/13 10:23:53;;;;;;;3.07;1.90;;;8.50;96.30;;;;;;5046840;28;21312;-73
2024/02/13 10:26:22;;;;;;;5.13;1.70;;;8.50;95.30;;;;;;5046721;28;20634;-72
2024/02/13 10:28:54;;;;;;;2.30;1.50;;;8.50;95.10;;;;;;5047563;28;20720;-73
2024/02/13 10:31:24;;;;;;;2.50;1.47;;;8.40;95.20;;;;;;5048173;28;20668;-73
2024/02/13 10:33:51;;;;;;;2.30;1.80;;;8.40;95.20;;;;;;5046750;28;20627;-73
2024/02/13 10:36:18;;;;;;;2.13;1.60;;;8.50;95.20;;;;;;5047369;28;21191;-73
2024/02/13 10:38:49;;;;;;;3.53;1.40;;;8.50;94.60;;;;;;5046961;28;20625;-73
2024/02/13 10:41:22;;;;;;;3.30;1.93;;;8.60;95.00;;;;;;5048024;28;21120;-73
2024/02/13 10:43:53;;;;;;;2.10;1.20;;;8.80;96.20;;;;;;5046951;28;20747;-73
2024/02/13 10:46:23;;;;;;;3.73;2.10;;;9.00;95.20;;;;;;5047462;28;20685;-74
2024/02/13 10:48:58;;;;;;;5.40;1.20;;;9.10;94.40;;;;;;5047320;28;20615;-73
2024/02/13 10:51:27;;;;;;;2.13;1.30;;;9.10;93.40;;;;;;5047163;28;20619;-73
2024/02/13 10:53:56;;;;;;;3.00;1.60;;;9.10;93.50;;;;;;5045688;28;20641;-73
2024/02/13 10:56:24;;;;;;;3.20;1.80;;;9.10;93.90;;;;;;5046827;28;20672;-73
2024/02/13 10:58:53;;;;;;;2.00;1.50;;;9.20;93.10;;;;;;5047030;28;20680;-73
2024/02/13 11:01:21;;;;;;;4.00;1.90;;;9.20;99.90;;;;;;5047299;28;20663;-73
2024/02/13 11:03:50;;;;;;;2.00;1.10;;;9.20;93.00;;;;;;5046375;28;20726;-72
2024/02/13 11:06:17;;;;;;;1.37;1.27;;;9.20;91.40;;;;;;5047310;28;20659;-72
2024/02/13 11:08:44;;;;;;;1.67;1.27;;;9.60;99.90;;;;;;5047121;28;21242;-72
2024/02/13 11:11:19;;;;;;;2.30;1.43;;;9.50;92.50;;;;;;5047233;28;20745;-72
2024/02/13 11:13:46;;;;;;;2.10;1.50;;;9.50;91.70;;;;;;5046629;28;20746;-72
2024/02/13 11:16:14;;;;;;;1.43;1.13;;;9.60;91.70;;;;;;5047074;28;20627;-72
2024/02/13 11:19:03;;;;;;;1.10;1.00;;;9.50;90.10;;;;;;5047048;28;20640;-72
2024/02/13 11:21:30;;;;;;;3.23;1.10;;;9.60;89.80;;;;;;5043899;28;21031;-72
2024/02/13 11:23:59;;;;;;;2.33;1.80;;;9.60;88.40;;;;;;5046447;28;20762;-72
2024/02/13 11:26:32;;;;;;;1.10;1.00;;;9.50;89.10;;;;;;5046724;28;20715;-72
2024/02/13 11:29:09;;;;;;;3.10;0.93;;;9.50;90.70;;;;;;5039315;28;20629;-73
2024/02/13 11:31:37;;;;;;;3.30;1.20;;;9.60;90.60;;;;;;5040574;28;20632;-74
2024/02/13 11:34:05;;;;;;;1.47;1.33;;;9.80;91.40;;;;;;5049309;28;20640;-74
2024/02/13 11:36:34;;;;;;;1.27;1.17;;;9.70;90.80;;;;;;5047650;28;20637;-74
2024/02/13 11:39:04;;;;;;;2.23;1.40;;;9.70;87.90;;;;;;5050993;28;20624;-74
2024/02/13 11:41:31;;;;;;;1.37;0.80;;;9.70;86.50;;;;;;5050433;28;20633;-74
2024/02/13 11:44:07;;;;;;;2.07;1.10;;;9.80;89.00;;;;;;5050381;28;20670;-74
2024/02/13 11:46:34;;;;;;;0.80;0.80;;;9.90;88.20;;;;;;5050489;28;21027;-74
2024/02/13 11:49:07;;;;;;;2.77;1.73;;;9.90;89.50;;;;;;5050626;28;20659;-74
2024/02/13 11:51:34;;;;;;;8.23;3.80;;;10.00;86.60;;;;;;5047688;28;20629;-75
2024/02/13 11:54:01;;;;;;;1.10;1.00;;;9.80;86.90;;;;;;5049253;28;20629;-74
2024/02/13 11:56:28;;;;;;;2.37;1.27;;;10.00;84.70;;;;;;5047562;28;20635;-74
2024/02/13 11:59:03;;;;;;;1.80;0.80;;;10.10;84.40;;;;;;5043646;28;20979;-75
2024/02/13 12:01:33;;;;;;;0.70;0.70;;;10.30;94.40;;;;;;5047571;28;20637;-75
2024/02/13 12:04:02;;;;;;;1.10;1.00;;;10.20;82.90;;;;;;5049895;28;21025;-75
2024/02/13 12:06:29;;;;;;;0.70;0.70;;;10.30;94.70;;;;;;5045502;28;21169;-76
2024/02/13 12:08:58;;;;;;;2.40;0.83;;;10.20;84.50;;;;;;5050366;28;21114;-76
2024/02/13 12:11:26;;;;;;;1.80;1.30;;;10.00;83.60;;;;;;5048951;28;20955;-73
2024/02/13 12:13:54;;;;;;;1.17;1.07;;;9.90;85.90;;;;;;5042691;28;20985;-72
2024/02/13 12:16:22;;;;;;;1.40;1.30;;;9.80;86.40;;;;;;5050211;28;20772;-74
2024/02/13 12:18:49;;;;;;;1.87;1.17;;;9.70;87.10;;;;;;5049248;28;20657;-78
2024/02/13 12:21:18;;;;;;;1.93;1.00;;;9.90;87.90;;;;;;5050163;28;20943;-77
2024/02/13 12:23:45;;;;;;;2.70;1.13;;;9.90;89.40;;;;;;5045561;28;20982;-74
2024/02/13 12:26:16;;;;;;;0.97;0.87;;;9.80;85.80;;;;;;5049338;28;20640;-74
2024/02/13 12:28:46;;;;;;;1.57;0.80;;;9.70;85.30;;;;;;5049012;28;20649;-74
2024/02/13 12:31:13;;;;;;;0.77;0.67;;;9.60;86.30;;;;;;5041819;28;20627;-74
2024/02/13 12:33:40;;;;;;;1.70;0.93;;;9.40;87.70;;;;;;5048574;28;20639;-74
2024/02/13 12:36:18;;;;;;;0.83;0.83;;;9.30;87.20;;;;;;5047482;28;20735;-73
2024/02/13 12:38:46;;;;;;;0.57;0.50;;;9.20;86.40;;;;;;5048768;28;20631;-87
2024/02/13 12:41:13;;;;;;;0.93;0.93;;;9.20;87.00;;;;;;5050247;28;20709;-78
2024/02/13 12:43:41;;;;;;;1.03;0.93;;;9.30;85.90;;;;;;5049481;28;20963;-86
2024/02/13 12:46:10;;;;;;;2.90;1.00;;;9.40;85.30;;;;;;5045589;28;21031;-73
2024/02/13 12:48:42;;;;;;;1.10;1.00;;;9.20;85.80;;;;;;5048551;28;20629;-73
2024/02/13 12:51:09;;;;;;;1.43;0.93;;;9.20;86.10;;;;;;5049311;28;20633;-73
2024/02/13 12:53:36;;;;;;;1.60;1.30;;;9.10;87.60;;;;;;5048132;28;20973;-73
2024/02/13 12:56:08;;;;;;;1.07;0.73;;;9.20;86.50;;;;;;5043612;28;20993;-73
2024/02/13 12:58:35;;;;;;;1.10;1.00;;;9.20;86.40;;;;;;5047659;28;20663;-71
2024/02/13 13:01:03;;;;;;;1.37;0.90;;;9.10;87.00;;;;;;5045822;28;20634;-73
2024/02/13 13:03:30;;;;;;;2.40;1.13;;;8.70;93.40;;;;;;5048139;28;20629;-72